Rapports des METAR proches

 

LFAQ - Bray, France
Distance from station: SSO 19km
Mise à jour: 29/11/2021 07:00
Très nuageux
Très nuageux
 Vent O
Vent: O 11 km/h
Température: 0°C
Température au vent: -4°C
Point de rosée: 0°C
Humidité: 100%
Baromètre: 1010 hPa
Clouds: Très nuageux
Visibility: 10 km
Cloud details: Quelques nuages 396 m
Très nuageux 579 m
Très nuageux 732 m
2021/11/29 06:00 LFAQ 290600Z AUTO 28006KT 9999 FEW013 BKN019 BKN024 M00/M00 Q1010 BECMG OVC004
LFQQ - Lille/Lesquin, France
Distance from station: NNE 53km
Mise à jour: 29/11/2021 07:00
Pluie faible, Orage
Pluie faible, Orage
 Vent O
Vent: O 19 km/h
Température: 1°C
Température au vent: -4°C
Point de rosée: 1°C
Humidité: 100%
Baromètre: 1009 hPa
Résumé: Pluie faible
Clouds: Orage
Visibility: 10 km
Cloud details: Partiellement nuageux 213 m
Très nuageux 1372 m
Très nuageux 2256 m
2021/11/29 06:00 LFQQ 290600Z AUTO 28010KT 9999 -RA SCT007/// BKN045/// BKN074/// ///TCU 01/01 Q1009 TEMPO 1200 SHSN BKN003 SCT030TCU
EBCV - Chievres Ab, Belgium
Distance from station: NE 88km
Mise à jour: 29/11/2021 06:55
Quelques nuages
Quelques nuages
 Vent O
Vent: O 11 km/h
Température: 0°C
Température au vent: -4°C
Point de rosée: 0°C
Humidité: 100%
Baromètre: 1008 hPa
Clouds: Quelques nuages
Visibility: 10 km
Cloud details: Quelques nuages 152 m
2021/11/29 05:55 EBCV 290555Z AUTO 27006KT 9999 FEW005/// 00/00 Q1008 BLU
 
LFOB - Beauvais/Tille(A, France
Distance from station: SSO 88km
Mise à jour: 29/11/2021 07:00
Clair
Clair
 Vent ONO
Vent: ONO 11 km/h
Température: -1°C
Température au vent: -5°C
Point de rosée: -1°C
Humidité: 100%
Baromètre: 1010 hPa
Résumé: Clair
Visibility: greater than 10 km
2021/11/29 06:00 LFOB 290600Z AUTO 29006KT CAVOK M01/M01 Q1010 NOSIG
LFAT - Le Touquet/P. Pl, France
Distance from station: ONO 93km
Mise à jour: 29/11/2021 07:00
Couvert
Couvert
 Vent NNE
Vent: NNE 6 km/h
Température: 4°C
Point de rosée: 2°C
Humidité: 87%
Baromètre: 1011 hPa
Clouds: Couvert
Visibility: 10 km
Cloud details: Couvert 427 m
2021/11/29 06:00 LFAT 290600Z AUTO 02003KT 350V050 9999 OVC014 04/02 Q1011 BECMG BKN016
EBFN - Koksijde (bel-Af, Belgium
Distance from station: N 105km
Mise à jour: 29/11/2021 07:23
Très nuageux
Très nuageux
 Vent varies
Vent: varies 4 km/h
Température: 2°C
Point de rosée: 1°C
Humidité: 93%
Baromètre: 1010 hPa
Clouds: Très nuageux
Visibility: 5 km
Cloud details: Partiellement nuageux 457 m
Très nuageux 762 m
2021/11/29 06:23 EBFN 290623Z VRB02KT 5000 SCT015 BKN025 02/01 Q1010 WHT WHT TEMPO GRN
 
EBOS - Oostende Airport, Belgium
Distance from station: N 119km
Mise à jour: 29/11/2021 07:20
Pluie faible, Averses, Très nuageux
Pluie faible, Averses, Très nuageux
 Vent OSO
Vent: OSO 17 km/h
Température: 1°C
Température au vent: -3°C
Point de rosée: 0°C
Humidité: 93%
Baromètre: 1009 hPa
Résumé: Pluie faible, Averses
Clouds: Très nuageux
Visibility: 6 km
Cloud details: Quelques nuages 213 m
Partiellement nuageux 518 m
Très nuageux 945 m
2021/11/29 06:20 EBOS 290620Z 25009KT 6000 -SHRA FEW007 SCT017TCU BKN031 01/M00 Q1009 RESHSN BECMG 32012KT TEMPO 4000 SHRA
EBCI - Charleroi/Gossel, Belgium
Distance from station: ENE 124km
Mise à jour: 29/11/2021 07:20
Light snow, Averses, Couvert
Light snow, Averses, Couvert
 Vent O
Vent: O 7 km/h
Température: 0°C
Température au vent: -3°C
Point de rosée: -1°C
Humidité: 93%
Baromètre: 1008 hPa
Résumé: Light snow, Averses
Clouds: Couvert
Visibility: 7 km
Cloud details: Partiellement nuageux 91 m
Couvert 122 m
2021/11/29 06:20 EBCI 290620Z 28004KT 250V320 7000 -SHSN SCT003 OVC004 00/M01 Q1008 BECMG NSW
LFPG - Charles De Gaull, France
Distance from station: S 125km
Mise à jour: 29/11/2021 07:00
Partiellement nuageux
Partiellement nuageux
 Vent O
Vent: O 4 km/h
Température: 0°C
Point de rosée: -1°C
Humidité: 93%
Baromètre: 1010 hPa
Clouds: Partiellement nuageux
Visibility: 10 km
Cloud details: Quelques nuages 305 m
Partiellement nuageux 366 m
2021/11/29 06:00 LFPG 290600Z 26002KT 9999 FEW010 SCT012 00/M01 Q1010 NOSIG
 
LFPT - Cormeilles Vexin, France
Distance from station: SSO 127km
Mise à jour: 29/11/2021 07:00
Clair
Clair
 Vent ONO
Vent: ONO 7 km/h
Température: -1°C
Température au vent: -4°C
Point de rosée: -2°C
Humidité: 93%
Baromètre: 1010 hPa
Résumé: Clair
Visibility: greater than 10 km
2021/11/29 06:00 LFPT 290600Z AUTO 30004KT CAVOK M01/M02 Q1010
LFPB - Paris/Le Bourget, France
Distance from station: S 132km
Mise à jour: 29/11/2021 07:00
Très nuageux
Très nuageux
 Vent varies
Vent: varies 4 km/h
Température: -1°C
Point de rosée: -2°C
Humidité: 93%
Baromètre: 1011 hPa
Clouds: Très nuageux
Visibility: 10 km
Cloud details: Très nuageux 396 m
2021/11/29 06:00 LFPB 290600Z AUTO VRB02KT 9999 BKN013 M01/M02 Q1011 BECMG SCT020
EBFS - Florennes (bel-A, Belgium
Distance from station: E 133km
Mise à jour: 29/11/2021 07:03
Très nuageux
Très nuageux
 Vent ONO
Vent: ONO 19 km/h
Température: 0°C
Température au vent: -5°C
Point de rosée: 0°C
Humidité: 100%
Baromètre: 1007 hPa
Clouds: Très nuageux
Visibility: 7 km
Cloud details: Partiellement nuageux 91 m
Très nuageux 152 m
2021/11/29 06:03 EBFS 290603Z 30010KT 7000 SCT003 BKN005 00/M00 Q1007 YLO YLO
 
LFQA - Reims/Prunay, France
Distance from station: SE 143km
Mise à jour: 29/11/2021 07:00
Couvert
Couvert
 Vent NO
Vent: NO 11 km/h
Température: 2°C
Température au vent: -1°C
Point de rosée: 1°C
Humidité: 93%
Baromètre: 1009 hPa
Clouds: Couvert
Visibility: 10 km
Cloud details: Couvert 488 m
2021/11/29 06:00 LFQA 290600Z AUTO 31006KT 9999 OVC016 02/01 Q1009
LFOP - Rouen/Boos (aut), France
Distance from station: SO 144km
Mise à jour: 29/11/2021 07:00
Clair
Clair
 Vent O
Vent: O 7 km/h
Température: -1°C
Température au vent: -4°C
Point de rosée: -2°C
Humidité: 93%
Baromètre: 1011 hPa
Résumé: Clair
Visibility: greater than 10 km
2021/11/29 06:00 LFOP 290600Z AUTO 27004KT CAVOK M01/M02 Q1011 NOSIG
EBBR - Brussels Nationa, Belgium
Distance from station: NE 148km
Mise à jour: 29/11/2021 07:20
Clair
Clair
 Vent OSO
Vent: OSO 11 km/h
Température: 1°C
Température au vent: -2°C
Point de rosée: -1°C
Humidité: 87%
Baromètre: 1008 hPa
Résumé: Clair
Visibility: greater than 10 km
2021/11/29 06:20 EBBR 290620Z 24006KT CAVOK 01/M01 Q1008 NOSIG
 
EBBE - Beauvechain (baf, Belgium
Distance from station: ENE 156km
Mise à jour: 29/11/2021 06:55
Brume, Très nuageux
Brume, Très nuageux
 Vent OSO
Vent: OSO 11 km/h
Température: 0°C
Température au vent: -4°C
Point de rosée: 0°C
Humidité: 100%
Baromètre: 1007 hPa
Résumé: Brume
Clouds: Très nuageux
Visibility: 3 km
Cloud details: Partiellement nuageux 91 m
Très nuageux 2743 m
2021/11/29 05:55 EBBE 290555Z 25006KT 2500 BR SCT003 BKN090 00/M00 Q1007 YLO YLO BECMG GRN
EHFS - Vlissingen, Netherlands
Distance from station: NNE 157km
Mise à jour: 29/11/2021 06:55
Très nuageux
Très nuageux
 Vent N
Vent: N 17 km/h
Température: 4°C
Température au vent: 0°C
Point de rosée: 0°C
Humidité: 75%
Baromètre: 1007 hPa
Clouds: Très nuageux
Visibility: 10 km
Cloud details: Quelques nuages 427 m
Partiellement nuageux 1097 m
Très nuageux 1311 m
2021/11/29 05:55 EHFS 290555Z AUTO 36009KT 320V030 9999 FEW014/// SCT036/// BKN043/// 04/00 Q1007 RERA
LFPV - Villacoublay/Vel, France
Distance from station: SSO 157km
Mise à jour: 29/11/2021 07:00
Très nuageux
Très nuageux
 Vent NO
Vent: NO 7 km/h
Température: 0°C
Température au vent: -3°C
Point de rosée: -1°C
Humidité: 93%
Baromètre: 1010 hPa
Clouds: Très nuageux
Visibility: 10 km
Cloud details: Très nuageux 396 m
2021/11/29 06:00 LFPV 290600Z AUTO 32004KT 9999 BKN013 M00/M01 Q1010 TEMPO BKN008
 
EGMD - Lydd Airport, United Kingdom
Distance from station: NO 160km
Mise à jour: 29/11/2021 07:20
Clair
Clair
 Vent ONO
Vent: ONO 13 km/h
Température: -1°C
Température au vent: -6°C
Point de rosée: -2°C
Humidité: 93%
Baromètre: 1012 hPa
Clouds: Clair
Visibility: 10 km
2021/11/29 06:20 EGMD 290620Z AUTO 29007KT 9999 NCD M01/M02 Q1012